WZZ499 ESGG-EPKK
Flight info
| Callsign | WZZ499 |
|---|---|
| Flight time | 1h 23m |
| Altitude | 27000 |
| Route | TOPLA N195 ELVIX L621 ROE N983 AMROR/N0451F370 N983 POLON N133 NEGUV M66 KUKAM |
| Aircraft | A21N/M-SDE2E3FGHIRWXY/LB1 |
Departure
| Time | 2026-05-07 17:10 |
|---|---|
| Airport | Göteborg Landvetter Airport (ESGG) |
Arrival
| Time | 2026-05-07 18:33 |
|---|---|
| Airport | Kraków John Paul II International Airport (EPKK) |
| Time | Latitude | Longitude | Altitude | Speed | Heading |
|---|---|---|---|---|---|
| 2026-05-07 16:27 | 57.66889 | 12.29418 | 519 ft | 0 kts | 116° |
| 2026-05-07 16:56 | 57.66898 | 12.29382 | 519 ft | 2 kts | 116° |
| 2026-05-07 16:57 | 57.66904 | 12.29359 | 519 ft | 2 kts | 116° |
| 2026-05-07 16:57 | 57.66910 | 12.29336 | 519 ft | 2 kts | 114° |
| 2026-05-07 16:57 | 57.66914 | 12.29320 | 519 ft | 1 kts | 105° |
| 2026-05-07 16:57 | 57.66915 | 12.29303 | 519 ft | 1 kts | 69° |
| 2026-05-07 16:58 | 57.66909 | 12.29289 | 519 ft | 2 kts | 29° |
| 2026-05-07 16:58 | 57.66900 | 12.29280 | 519 ft | 2 kts | 27° |
| 2026-05-07 16:58 | 57.66891 | 12.29272 | 519 ft | 1 kts | 26° |
| 2026-05-07 16:58 | 57.66885 | 12.29267 | 519 ft | 1 kts | 26° |
| 2026-05-07 16:59 | 57.66881 | 12.29263 | 519 ft | 1 kts | 26° |
| 2026-05-07 16:59 | 57.66878 | 12.29261 | 519 ft | 0 kts | 26° |
| 2026-05-07 16:59 | 57.66879 | 12.29261 | 519 ft | 0 kts | 26° |
| 2026-05-07 17:00 | 57.66881 | 12.29263 | 519 ft | 1 kts | 26° |
| 2026-05-07 17:00 | 57.66886 | 12.29267 | 519 ft | 0 kts | 26° |
| 2026-05-07 17:03 | 57.66907 | 12.29286 | 519 ft | 8 kts | 26° |
| 2026-05-07 17:04 | 57.66956 | 12.29327 | 519 ft | 7 kts | 8° |
| 2026-05-07 17:04 | 57.66992 | 12.29268 | 519 ft | 9 kts | 296° |
| 2026-05-07 17:04 | 57.67038 | 12.29188 | 519 ft | 8 kts | 4° |
| 2026-05-07 17:04 | 57.67142 | 12.29278 | 519 ft | 27 kts | 26° |
| 2026-05-07 17:05 | 57.67313 | 12.29430 | 519 ft | 27 kts | 27° |
| 2026-05-07 17:05 | 57.67417 | 12.29466 | 519 ft | 8 kts | 313° |
| 2026-05-07 17:05 | 57.67443 | 12.29359 | 519 ft | 10 kts | 295° |
| 2026-05-07 17:05 | 57.67460 | 12.29274 | 518 ft | 0 kts | 274° |
| 2026-05-07 17:06 | 57.67460 | 12.29260 | 518 ft | 2 kts | 274° |
| 2026-05-07 17:06 | 57.67462 | 12.29224 | 518 ft | 1 kts | 274° |
| 2026-05-07 17:06 | 57.67462 | 12.29223 | 518 ft | 0 kts | 274° |
| 2026-05-07 17:06 | 57.67462 | 12.29221 | 518 ft | 0 kts | 274° |
| 2026-05-07 17:09 | 57.67456 | 12.29127 | 517 ft | 18 kts | 257° |
| 2026-05-07 17:09 | 57.67342 | 12.28933 | 518 ft | 47 kts | 208° |
| 2026-05-07 17:09 | 57.66851 | 12.28481 | 516 ft | 111 kts | 204° |
| 2026-05-07 17:09 | 57.65955 | 12.27678 | 564 ft | 166 kts | 208° |
| 2026-05-07 17:10 | 57.64919 | 12.26747 | 1259 ft | 164 kts | 207° |
| 2026-05-07 17:10 | 57.63860 | 12.25929 | 2027 ft | 166 kts | 215° |
| 2026-05-07 17:10 | 57.62863 | 12.24696 | 2536 ft | 184 kts | 215° |
| 2026-05-07 17:10 | 57.61604 | 12.23649 | 2824 ft | 214 kts | 194° |
| 2026-05-07 17:11 | 57.60016 | 12.23215 | 3102 ft | 246 kts | 185° |
| 2026-05-07 17:11 | 57.58265 | 12.22958 | 3871 ft | 257 kts | 184° |
| 2026-05-07 17:11 | 57.56463 | 12.22697 | 4595 ft | 261 kts | 182° |
| 2026-05-07 17:11 | 57.54649 | 12.22804 | 4952 ft | 261 kts | 172° |
| 2026-05-07 17:12 | 57.52844 | 12.23261 | 5012 ft | 262 kts | 171° |
| 2026-05-07 17:12 | 57.51043 | 12.23782 | 5013 ft | 262 kts | 170° |
| 2026-05-07 17:12 | 57.49237 | 12.24304 | 5015 ft | 263 kts | 169° |
| 2026-05-07 17:12 | 57.47519 | 12.25249 | 5170 ft | 264 kts | 155° |
| 2026-05-07 17:13 | 57.45854 | 12.26783 | 5916 ft | 267 kts | 151° |
| 2026-05-07 17:13 | 57.44240 | 12.28494 | 6906 ft | 268 kts | 149° |
| 2026-05-07 17:13 | 57.42643 | 12.30329 | 7799 ft | 272 kts | 148° |
| 2026-05-07 17:13 | 57.41029 | 12.32259 | 8662 ft | 279 kts | 148° |
| 2026-05-07 17:14 | 57.39389 | 12.34251 | 9541 ft | 285 kts | 148° |
| 2026-05-07 17:14 | 57.37711 | 12.36289 | 10414 ft | 292 kts | 148° |
| 2026-05-07 17:14 | 57.35941 | 12.38422 | 10831 ft | 315 kts | 148° |
| 2026-05-07 17:14 | 57.34026 | 12.40708 | 11160 ft | 339 kts | 148° |
| 2026-05-07 17:15 | 57.31976 | 12.43144 | 11542 ft | 360 kts | 149° |
| 2026-05-07 17:15 | 57.29834 | 12.45681 | 12193 ft | 370 kts | 148° |
| 2026-05-07 17:15 | 57.27640 | 12.48275 | 13027 ft | 376 kts | 148° |
| 2026-05-07 17:15 | 57.25423 | 12.50892 | 13882 ft | 381 kts | 149° |
| 2026-05-07 17:16 | 57.23174 | 12.53542 | 14624 ft | 386 kts | 148° |
| 2026-05-07 17:16 | 57.20925 | 12.56187 | 15351 ft | 390 kts | 149° |
| 2026-05-07 17:16 | 57.18623 | 12.58891 | 16055 ft | 395 kts | 149° |
| 2026-05-07 17:16 | 57.16280 | 12.61638 | 16748 ft | 400 kts | 149° |
| 2026-05-07 17:17 | 57.13918 | 12.64402 | 17455 ft | 404 kts | 149° |
| 2026-05-07 17:17 | 57.11530 | 12.67193 | 18159 ft | 408 kts | 149° |
| 2026-05-07 17:17 | 57.09119 | 12.70005 | 18781 ft | 412 kts | 149° |
| 2026-05-07 17:17 | 57.06690 | 12.72833 | 19340 ft | 416 kts | 149° |
| 2026-05-07 17:18 | 57.04235 | 12.75688 | 19918 ft | 420 kts | 149° |
| 2026-05-07 17:18 | 57.01750 | 12.78574 | 20478 ft | 424 kts | 149° |
| 2026-05-07 17:18 | 56.99246 | 12.81477 | 21030 ft | 428 kts | 149° |
| 2026-05-07 17:18 | 56.96720 | 12.84401 | 21610 ft | 431 kts | 149° |
| 2026-05-07 17:19 | 56.94205 | 12.87308 | 22145 ft | 435 kts | 149° |
| 2026-05-07 17:19 | 56.91632 | 12.90276 | 22678 ft | 438 kts | 149° |
| 2026-05-07 17:19 | 56.89035 | 12.93267 | 23189 ft | 442 kts | 149° |
| 2026-05-07 17:19 | 56.86415 | 12.96280 | 23680 ft | 446 kts | 149° |
| 2026-05-07 17:20 | 56.83774 | 12.99312 | 24099 ft | 449 kts | 149° |
| 2026-05-07 17:20 | 56.81117 | 13.02357 | 24523 ft | 451 kts | 149° |
| 2026-05-07 17:20 | 56.78444 | 13.05416 | 24944 ft | 454 kts | 149° |
| 2026-05-07 17:20 | 56.75795 | 13.08441 | 25356 ft | 456 kts | 149° |
| 2026-05-07 17:21 | 56.73089 | 13.11527 | 25739 ft | 459 kts | 149° |
| 2026-05-07 17:21 | 56.70375 | 13.14616 | 26147 ft | 461 kts | 149° |
| 2026-05-07 17:21 | 56.67646 | 13.17717 | 26535 ft | 463 kts | 149° |
| 2026-05-07 17:21 | 56.64902 | 13.20830 | 26888 ft | 467 kts | 149° |
| 2026-05-07 17:22 | 56.62136 | 13.23962 | 27072 ft | 469 kts | 149° |
| 2026-05-07 17:22 | 56.59363 | 13.27098 | 27116 ft | 469 kts | 149° |
| 2026-05-07 17:22 | 56.56600 | 13.30217 | 27113 ft | 469 kts | 149° |
| 2026-05-07 17:22 | 56.53826 | 13.33341 | 27111 ft | 468 kts | 149° |
| 2026-05-07 17:23 | 56.51058 | 13.36453 | 27110 ft | 468 kts | 149° |
| 2026-05-07 17:23 | 56.48297 | 13.39553 | 27108 ft | 468 kts | 149° |
| 2026-05-07 17:23 | 56.45550 | 13.42630 | 27110 ft | 469 kts | 149° |
| 2026-05-07 17:23 | 56.42775 | 13.45734 | 27112 ft | 468 kts | 149° |
| 2026-05-07 17:24 | 56.40007 | 13.48826 | 27111 ft | 468 kts | 149° |
| 2026-05-07 17:24 | 56.37231 | 13.51920 | 27107 ft | 469 kts | 149° |
| 2026-05-07 17:24 | 56.34455 | 13.55009 | 27109 ft | 468 kts | 149° |
| 2026-05-07 17:24 | 56.31680 | 13.58090 | 27111 ft | 468 kts | 149° |
| 2026-05-07 17:25 | 56.28895 | 13.61178 | 27113 ft | 468 kts | 149° |
| 2026-05-07 17:25 | 56.26119 | 13.64251 | 27108 ft | 468 kts | 149° |
| 2026-05-07 17:25 | 56.23339 | 13.67324 | 27106 ft | 467 kts | 149° |
| 2026-05-07 17:25 | 56.20572 | 13.70376 | 27106 ft | 466 kts | 149° |
| 2026-05-07 17:26 | 56.17805 | 13.73423 | 27107 ft | 466 kts | 149° |
| 2026-05-07 17:26 | 56.15041 | 13.76463 | 27106 ft | 466 kts | 149° |
| 2026-05-07 17:26 | 56.12275 | 13.79498 | 27104 ft | 466 kts | 149° |
| 2026-05-07 17:26 | 56.09546 | 13.82488 | 27104 ft | 465 kts | 149° |
| 2026-05-07 17:27 | 56.06787 | 13.85506 | 27108 ft | 464 kts | 149° |
| 2026-05-07 17:27 | 56.04028 | 13.88518 | 27106 ft | 464 kts | 149° |
| 2026-05-07 17:27 | 56.01263 | 13.91531 | 27108 ft | 465 kts | 149° |
| 2026-05-07 17:27 | 55.98503 | 13.94534 | 27107 ft | 464 kts | 149° |
| 2026-05-07 17:28 | 55.95755 | 13.97520 | 27108 ft | 463 kts | 149° |
| 2026-05-07 17:28 | 55.92992 | 14.00517 | 27111 ft | 462 kts | 149° |
| 2026-05-07 17:28 | 55.90247 | 14.03489 | 27110 ft | 462 kts | 149° |
| 2026-05-07 17:28 | 55.87492 | 14.06468 | 27102 ft | 462 kts | 149° |
| 2026-05-07 17:29 | 55.84780 | 14.09395 | 27103 ft | 462 kts | 149° |
| 2026-05-07 17:29 | 55.82014 | 14.12374 | 27102 ft | 463 kts | 149° |
| 2026-05-07 17:29 | 55.79249 | 14.15348 | 27105 ft | 464 kts | 149° |
| 2026-05-07 17:29 | 55.76481 | 14.18321 | 27102 ft | 463 kts | 149° |
| 2026-05-07 17:30 | 55.73720 | 14.21281 | 27107 ft | 462 kts | 149° |
| 2026-05-07 17:30 | 55.70980 | 14.24213 | 27109 ft | 460 kts | 149° |
| 2026-05-07 17:30 | 55.68229 | 14.27153 | 27111 ft | 459 kts | 149° |
| 2026-05-07 17:30 | 55.65493 | 14.30071 | 27112 ft | 459 kts | 149° |
| 2026-05-07 17:31 | 55.62759 | 14.32982 | 27116 ft | 459 kts | 149° |
| 2026-05-07 17:31 | 55.60021 | 14.35892 | 27115 ft | 459 kts | 149° |
| 2026-05-07 17:31 | 55.57287 | 14.38793 | 27117 ft | 459 kts | 149° |
| 2026-05-07 17:31 | 55.54582 | 14.41659 | 27121 ft | 459 kts | 149° |
| 2026-05-07 17:32 | 55.51840 | 14.44560 | 27119 ft | 459 kts | 149° |
| 2026-05-07 17:32 | 55.49100 | 14.47454 | 27118 ft | 458 kts | 149° |
| 2026-05-07 17:32 | 55.46353 | 14.50350 | 27118 ft | 458 kts | 149° |
| 2026-05-07 17:32 | 55.44535 | 14.52264 | 27120 ft | 458 kts | 149° |
| 2026-05-07 17:33 | 55.40877 | 14.56110 | 27118 ft | 458 kts | 150° |
| 2026-05-07 17:33 | 55.38144 | 14.58980 | 27126 ft | 457 kts | 150° |
| 2026-05-07 17:33 | 55.35452 | 14.61801 | 27127 ft | 456 kts | 150° |
| 2026-05-07 17:33 | 55.32726 | 14.64651 | 27130 ft | 455 kts | 150° |
| 2026-05-07 17:34 | 55.29999 | 14.67498 | 27126 ft | 455 kts | 150° |
| 2026-05-07 17:34 | 55.27271 | 14.70341 | 27127 ft | 455 kts | 150° |
| 2026-05-07 17:34 | 55.24550 | 14.73173 | 27128 ft | 455 kts | 150° |
| 2026-05-07 17:34 | 55.21824 | 14.76005 | 27129 ft | 455 kts | 150° |
| 2026-05-07 17:35 | 55.20016 | 14.77881 | 27128 ft | 455 kts | 150° |
| 2026-05-07 17:35 | 55.17287 | 14.80708 | 27129 ft | 455 kts | 150° |
| 2026-05-07 17:35 | 55.14561 | 14.83529 | 27130 ft | 455 kts | 151° |
| 2026-05-07 17:35 | 55.11828 | 14.86353 | 27129 ft | 455 kts | 151° |
| 2026-05-07 17:36 | 55.09104 | 14.89163 | 27129 ft | 455 kts | 151° |
| 2026-05-07 17:36 | 55.06375 | 14.91973 | 27131 ft | 455 kts | 151° |
| 2026-05-07 17:36 | 55.03645 | 14.94780 | 27128 ft | 454 kts | 151° |
| 2026-05-07 17:36 | 55.00927 | 14.97572 | 27128 ft | 453 kts | 151° |
| 2026-05-07 17:37 | 54.98207 | 15.00359 | 27125 ft | 453 kts | 151° |
| 2026-05-07 17:37 | 54.95489 | 15.03140 | 27123 ft | 453 kts | 151° |
| 2026-05-07 17:37 | 54.92758 | 15.05929 | 27123 ft | 453 kts | 151° |
| 2026-05-07 17:37 | 54.90107 | 15.08894 | 27123 ft | 454 kts | 145° |
| 2026-05-07 17:38 | 54.87713 | 15.12497 | 27125 ft | 456 kts | 138° |
| 2026-05-07 17:38 | 54.85475 | 15.16398 | 27127 ft | 457 kts | 135° |
| 2026-05-07 17:38 | 54.83329 | 15.20367 | 27124 ft | 457 kts | 134° |
| 2026-05-07 17:38 | 54.81189 | 15.24448 | 27121 ft | 457 kts | 133° |
| 2026-05-07 17:39 | 54.79064 | 15.28546 | 27126 ft | 456 kts | 133° |
| 2026-05-07 17:39 | 54.76949 | 15.32625 | 27116 ft | 456 kts | 133° |
| 2026-05-07 17:39 | 54.74821 | 15.36705 | 27117 ft | 455 kts | 133° |
| 2026-05-07 17:39 | 54.72695 | 15.40756 | 27119 ft | 454 kts | 134° |
| 2026-05-07 17:40 | 54.70566 | 15.44790 | 27118 ft | 454 kts | 134° |
| 2026-05-07 17:40 | 54.68431 | 15.48820 | 27119 ft | 454 kts | 134° |
| 2026-05-07 17:40 | 54.66293 | 15.52841 | 27171 ft | 456 kts | 134° |
| 2026-05-07 17:40 | 54.64136 | 15.56888 | 27545 ft | 457 kts | 134° |
| 2026-05-07 17:41 | 54.61984 | 15.60921 | 28074 ft | 455 kts | 134° |
| 2026-05-07 17:41 | 54.59738 | 15.64744 | 28676 ft | 451 kts | 138° |
| 2026-05-07 17:41 | 54.57460 | 15.68425 | 29243 ft | 448 kts | 139° |
| 2026-05-07 17:41 | 54.55197 | 15.72005 | 29751 ft | 445 kts | 139° |
| 2026-05-07 17:42 | 54.52911 | 15.75577 | 30227 ft | 443 kts | 139° |
| 2026-05-07 17:42 | 54.50623 | 15.79129 | 30605 ft | 442 kts | 140° |
| 2026-05-07 17:42 | 54.48327 | 15.82684 | 30945 ft | 442 kts | 140° |
| 2026-05-07 17:42 | 54.46036 | 15.86229 | 31240 ft | 443 kts | 139° |
| 2026-05-07 17:43 | 54.43747 | 15.89770 | 31561 ft | 442 kts | 139° |
| 2026-05-07 17:43 | 54.41466 | 15.93298 | 31894 ft | 442 kts | 139° |
| 2026-05-07 17:43 | 54.39181 | 15.96830 | 32220 ft | 441 kts | 140° |
| 2026-05-07 17:43 | 54.36896 | 16.00358 | 32547 ft | 441 kts | 140° |
| 2026-05-07 17:44 | 54.34618 | 16.03871 | 32853 ft | 441 kts | 140° |
| 2026-05-07 17:44 | 54.32341 | 16.07376 | 33159 ft | 440 kts | 140° |
| 2026-05-07 17:44 | 54.30064 | 16.10878 | 33458 ft | 440 kts | 140° |
| 2026-05-07 17:44 | 54.27783 | 16.14378 | 33744 ft | 439 kts | 141° |
| 2026-05-07 17:45 | 54.25526 | 16.17841 | 34246 ft | 432 kts | 141° |
| 2026-05-07 17:45 | 54.23288 | 16.21268 | 34520 ft | 431 kts | 141° |
| 2026-05-07 17:45 | 54.21042 | 16.24696 | 34632 ft | 434 kts | 141° |
| 2026-05-07 17:45 | 54.18810 | 16.28097 | 34762 ft | 436 kts | 141° |
| 2026-05-07 17:46 | 54.16543 | 16.31547 | 34940 ft | 436 kts | 141° |
| 2026-05-07 17:46 | 54.14269 | 16.35004 | 35108 ft | 437 kts | 141° |
| 2026-05-07 17:46 | 54.11991 | 16.38461 | 35276 ft | 438 kts | 141° |
| 2026-05-07 17:46 | 54.09714 | 16.41914 | 35435 ft | 438 kts | 141° |
| 2026-05-07 17:47 | 54.07426 | 16.45377 | 35609 ft | 439 kts | 141° |
| 2026-05-07 17:47 | 54.05143 | 16.48827 | 35765 ft | 440 kts | 141° |
| 2026-05-07 17:47 | 54.02851 | 16.52287 | 35923 ft | 440 kts | 141° |
| 2026-05-07 17:47 | 54.00586 | 16.55701 | 36085 ft | 439 kts | 142° |
| 2026-05-07 17:48 | 53.98308 | 16.59131 | 36348 ft | 438 kts | 142° |
| 2026-05-07 17:48 | 53.96023 | 16.62564 | 36485 ft | 438 kts | 142° |
| 2026-05-07 17:48 | 53.93736 | 16.65993 | 36603 ft | 440 kts | 142° |
| 2026-05-07 17:48 | 53.91433 | 16.69439 | 36715 ft | 440 kts | 142° |
| 2026-05-07 17:49 | 53.89136 | 16.72873 | 36846 ft | 441 kts | 142° |
| 2026-05-07 17:49 | 53.86829 | 16.76317 | 36976 ft | 442 kts | 142° |
| 2026-05-07 17:49 | 53.82199 | 16.83214 | 37074 ft | 443 kts | 142° |
| 2026-05-07 17:50 | 53.77597 | 16.90050 | 37077 ft | 443 kts | 142° |
| 2026-05-07 17:50 | 53.72971 | 16.96902 | 37065 ft | 441 kts | 142° |
| 2026-05-07 17:51 | 53.68353 | 17.03722 | 37080 ft | 440 kts | 142° |
| 2026-05-07 17:51 | 53.63737 | 17.10522 | 37065 ft | 440 kts | 142° |
| 2026-05-07 17:52 | 53.59115 | 17.17313 | 37064 ft | 440 kts | 142° |
| 2026-05-07 17:52 | 53.54492 | 17.24084 | 37063 ft | 440 kts | 142° |
| 2026-05-07 17:53 | 53.49891 | 17.30803 | 37039 ft | 440 kts | 142° |
| 2026-05-07 17:53 | 53.45272 | 17.37530 | 37057 ft | 438 kts | 142° |
| 2026-05-07 17:54 | 53.40664 | 17.44218 | 37055 ft | 438 kts | 142° |
| 2026-05-07 17:54 | 53.36044 | 17.50903 | 37054 ft | 438 kts | 143° |
| 2026-05-07 17:55 | 53.31425 | 17.57568 | 37052 ft | 438 kts | 143° |
| 2026-05-07 17:55 | 53.26831 | 17.64177 | 37055 ft | 438 kts | 143° |
| 2026-05-07 17:56 | 53.22205 | 17.70813 | 37051 ft | 438 kts | 143° |
| 2026-05-07 17:56 | 53.17574 | 17.77437 | 37054 ft | 439 kts | 143° |
| 2026-05-07 17:57 | 53.13717 | 17.82938 | 37047 ft | 438 kts | 143° |
| 2026-05-07 17:57 | 53.08295 | 17.90649 | 37047 ft | 438 kts | 143° |
| 2026-05-07 17:58 | 53.03649 | 17.97236 | 37047 ft | 438 kts | 143° |
| 2026-05-07 17:58 | 52.99033 | 18.03760 | 37027 ft | 438 kts | 144° |
| 2026-05-07 17:59 | 52.94402 | 18.10290 | 37047 ft | 435 kts | 144° |
| 2026-05-07 17:59 | 52.89784 | 18.16779 | 37045 ft | 435 kts | 144° |
| 2026-05-07 18:00 | 52.85165 | 18.23248 | 37046 ft | 435 kts | 144° |
| 2026-05-07 18:00 | 52.80543 | 18.29706 | 37040 ft | 435 kts | 144° |
| 2026-05-07 18:01 | 52.75915 | 18.36154 | 37037 ft | 435 kts | 144° |
| 2026-05-07 18:01 | 52.71318 | 18.42542 | 37032 ft | 434 kts | 144° |
| 2026-05-07 18:02 | 52.64385 | 18.52138 | 37034 ft | 433 kts | 144° |
| 2026-05-07 18:03 | 52.59765 | 18.58510 | 37031 ft | 433 kts | 144° |
| 2026-05-07 18:03 | 52.55134 | 18.64877 | 37029 ft | 433 kts | 144° |
| 2026-05-07 18:04 | 52.50536 | 18.71180 | 37022 ft | 433 kts | 144° |
| 2026-05-07 18:04 | 52.45909 | 18.77506 | 37023 ft | 433 kts | 145° |
| 2026-05-07 18:05 | 52.41271 | 18.83828 | 37020 ft | 434 kts | 145° |
| 2026-05-07 18:05 | 52.36626 | 18.90141 | 37021 ft | 434 kts | 145° |
| 2026-05-07 18:06 | 52.31977 | 18.96442 | 37018 ft | 433 kts | 145° |
| 2026-05-07 18:06 | 52.27358 | 19.02680 | 37015 ft | 433 kts | 145° |
| 2026-05-07 18:07 | 52.22701 | 19.08950 | 36980 ft | 433 kts | 146° |
| 2026-05-07 18:07 | 52.18041 | 19.15205 | 37012 ft | 434 kts | 146° |
| 2026-05-07 18:08 | 52.13373 | 19.21454 | 37012 ft | 434 kts | 146° |
| 2026-05-07 18:08 | 52.08699 | 19.27695 | 37009 ft | 434 kts | 146° |
| 2026-05-07 18:09 | 52.04027 | 19.33915 | 37009 ft | 434 kts | 146° |
| 2026-05-07 18:09 | 51.99353 | 19.40120 | 36999 ft | 434 kts | 146° |
| 2026-05-07 18:10 | 51.94709 | 19.46269 | 36998 ft | 434 kts | 146° |
| 2026-05-07 18:10 | 51.90032 | 19.52444 | 36995 ft | 433 kts | 146° |
| 2026-05-07 18:11 | 51.85357 | 19.58601 | 36995 ft | 433 kts | 146° |
| 2026-05-07 18:11 | 51.80548 | 19.64420 | 36995 ft | 428 kts | 155° |
| 2026-05-07 18:12 | 51.75166 | 19.68243 | 36996 ft | 421 kts | 165° |
| 2026-05-07 18:12 | 51.69614 | 19.71267 | 37000 ft | 420 kts | 166° |
| 2026-05-07 18:13 | 51.64033 | 19.74130 | 36990 ft | 421 kts | 166° |
| 2026-05-07 18:13 | 51.58482 | 19.76988 | 36999 ft | 422 kts | 166° |
| 2026-05-07 18:14 | 51.52897 | 19.79895 | 36989 ft | 422 kts | 166° |
| 2026-05-07 18:14 | 51.47313 | 19.82821 | 36983 ft | 422 kts | 166° |
| 2026-05-07 18:15 | 51.41726 | 19.85747 | 36985 ft | 422 kts | 166° |
| 2026-05-07 18:15 | 51.36141 | 19.88653 | 36903 ft | 424 kts | 166° |
| 2026-05-07 18:15 | 51.33335 | 19.90109 | 36392 ft | 424 kts | 166° |
| 2026-05-07 18:16 | 51.30528 | 19.91566 | 35669 ft | 424 kts | 166° |
| 2026-05-07 18:16 | 51.27721 | 19.93024 | 35042 ft | 421 kts | 167° |
| 2026-05-07 18:16 | 51.24965 | 19.94457 | 34212 ft | 414 kts | 167° |
| 2026-05-07 18:16 | 51.22222 | 19.95880 | 33338 ft | 413 kts | 167° |
| 2026-05-07 18:17 | 51.19534 | 19.97268 | 32176 ft | 409 kts | 167° |
| 2026-05-07 18:17 | 51.16790 | 19.98680 | 30759 ft | 410 kts | 166° |
| 2026-05-07 18:17 | 51.14099 | 20.00050 | 29196 ft | 411 kts | 167° |
| 2026-05-07 18:17 | 51.11326 | 20.01137 | 27341 ft | 412 kts | 173° |
| 2026-05-07 18:18 | 51.08469 | 20.01703 | 25448 ft | 416 kts | 178° |
| 2026-05-07 18:18 | 51.05570 | 20.02001 | 23746 ft | 419 kts | 179° |
| 2026-05-07 18:18 | 51.02671 | 20.02238 | 22004 ft | 416 kts | 179° |
| 2026-05-07 18:18 | 50.99791 | 20.02462 | 20640 ft | 408 kts | 179° |
| 2026-05-07 18:19 | 50.97031 | 20.02677 | 20019 ft | 384 kts | 179° |
| 2026-05-07 18:19 | 50.94432 | 20.02880 | 19424 ft | 364 kts | 179° |
| 2026-05-07 18:19 | 50.91939 | 20.03072 | 18796 ft | 358 kts | 179° |
| 2026-05-07 18:19 | 50.89435 | 20.03260 | 18166 ft | 362 kts | 179° |
| 2026-05-07 18:20 | 50.87761 | 20.03387 | 17687 ft | 364 kts | 179° |
| 2026-05-07 18:20 | 50.85240 | 20.03580 | 17047 ft | 361 kts | 179° |
| 2026-05-07 18:20 | 50.82745 | 20.03772 | 16418 ft | 358 kts | 179° |
| 2026-05-07 18:20 | 50.79468 | 20.04024 | 15601 ft | 354 kts | 179° |
| 2026-05-07 18:21 | 50.77837 | 20.04149 | 15190 ft | 353 kts | 179° |
| 2026-05-07 18:21 | 50.75391 | 20.04337 | 14568 ft | 351 kts | 179° |
| 2026-05-07 18:21 | 50.72957 | 20.04523 | 13945 ft | 349 kts | 179° |
| 2026-05-07 18:21 | 50.70528 | 20.04710 | 13307 ft | 348 kts | 179° |
| 2026-05-07 18:22 | 50.68117 | 20.04894 | 12689 ft | 346 kts | 179° |
| 2026-05-07 18:22 | 50.66501 | 20.05018 | 12287 ft | 344 kts | 179° |
| 2026-05-07 18:22 | 50.63344 | 20.05259 | 11499 ft | 341 kts | 179° |
| 2026-05-07 18:22 | 50.60979 | 20.05440 | 10888 ft | 339 kts | 179° |
| 2026-05-07 18:23 | 50.58640 | 20.05619 | 10480 ft | 331 kts | 179° |
| 2026-05-07 18:23 | 50.56425 | 20.05791 | 10395 ft | 304 kts | 180° |
| 2026-05-07 18:23 | 50.54408 | 20.05949 | 10216 ft | 281 kts | 180° |
| 2026-05-07 18:23 | 50.52495 | 20.06094 | 9881 ft | 271 kts | 180° |
| 2026-05-07 18:24 | 50.50576 | 20.06233 | 9708 ft | 279 kts | 180° |
| 2026-05-07 18:24 | 50.48624 | 20.06376 | 9584 ft | 281 kts | 180° |
| 2026-05-07 18:24 | 50.46661 | 20.06523 | 9379 ft | 280 kts | 180° |
| 2026-05-07 18:24 | 50.44747 | 20.06669 | 9142 ft | 272 kts | 180° |
| 2026-05-07 18:25 | 50.42876 | 20.06812 | 8803 ft | 268 kts | 180° |
| 2026-05-07 18:25 | 50.41016 | 20.06952 | 8453 ft | 265 kts | 180° |
| 2026-05-07 18:25 | 50.39219 | 20.07090 | 8221 ft | 251 kts | 180° |
| 2026-05-07 18:25 | 50.37480 | 20.07221 | 7800 ft | 248 kts | 180° |
| 2026-05-07 18:26 | 50.35761 | 20.07349 | 7420 ft | 247 kts | 180° |
| 2026-05-07 18:26 | 50.34041 | 20.07477 | 7022 ft | 247 kts | 180° |
| 2026-05-07 18:26 | 50.32329 | 20.07605 | 6648 ft | 246 kts | 180° |
| 2026-05-07 18:26 | 50.30622 | 20.07734 | 6286 ft | 245 kts | 180° |
| 2026-05-07 18:27 | 50.28924 | 20.07861 | 5921 ft | 243 kts | 180° |
| 2026-05-07 18:27 | 50.27260 | 20.07987 | 5560 ft | 241 kts | 180° |
| 2026-05-07 18:27 | 50.25594 | 20.08112 | 5211 ft | 238 kts | 180° |
| 2026-05-07 18:27 | 50.23944 | 20.08236 | 4878 ft | 237 kts | 180° |
| 2026-05-07 18:28 | 50.22302 | 20.08359 | 4521 ft | 236 kts | 180° |
| 2026-05-07 18:28 | 50.20651 | 20.08481 | 4178 ft | 237 kts | 180° |
| 2026-05-07 18:28 | 50.19015 | 20.08603 | 4012 ft | 235 kts | 180° |
| 2026-05-07 18:28 | 50.17379 | 20.08725 | 4002 ft | 236 kts | 180° |
| 2026-05-07 18:29 | 50.15732 | 20.08846 | 4001 ft | 237 kts | 181° |
| 2026-05-07 18:29 | 50.14101 | 20.08702 | 3999 ft | 234 kts | 192° |
| 2026-05-07 18:29 | 50.12622 | 20.07857 | 3994 ft | 227 kts | 219° |
| 2026-05-07 18:29 | 50.11648 | 20.06000 | 3995 ft | 222 kts | 249° |
| 2026-05-07 18:30 | 50.11191 | 20.03714 | 3827 ft | 221 kts | 258° |
| 2026-05-07 18:30 | 50.10873 | 20.01378 | 3512 ft | 220 kts | 259° |
| 2026-05-07 18:30 | 50.10573 | 19.99046 | 3210 ft | 220 kts | 260° |
| 2026-05-07 18:30 | 50.10269 | 19.96715 | 2962 ft | 215 kts | 259° |
| 2026-05-07 18:31 | 50.09969 | 19.94479 | 2702 ft | 206 kts | 259° |
| 2026-05-07 18:31 | 50.09680 | 19.92343 | 2388 ft | 195 kts | 259° |
| 2026-05-07 18:31 | 50.09406 | 19.90342 | 2127 ft | 182 kts | 259° |
| 2026-05-07 18:31 | 50.09154 | 19.88504 | 1894 ft | 165 kts | 258° |
| 2026-05-07 18:32 | 50.08922 | 19.86805 | 1707 ft | 155 kts | 257° |
| 2026-05-07 18:32 | 50.08710 | 19.85254 | 1515 ft | 139 kts | 256° |
| 2026-05-07 18:32 | 50.08517 | 19.83823 | 1304 ft | 135 kts | 257° |
| 2026-05-07 18:32 | 50.08314 | 19.82395 | 1094 ft | 135 kts | 253° |
| 2026-05-07 18:33 | 50.08117 | 19.80967 | 939 ft | 135 kts | 255° |
| 2026-05-07 18:33 | 50.07921 | 19.79551 | 805 ft | 129 kts | 255° |
| 2026-05-07 18:33 | 50.07764 | 19.78419 | 805 ft | 83 kts | 257° |
| 2026-05-07 18:33 | 50.07673 | 19.77782 | 801 ft | 48 kts | 257° |
| 2026-05-07 18:34 | 50.07608 | 19.77292 | 804 ft | 45 kts | 257° |
| 2026-05-07 18:34 | 50.07553 | 19.76909 | 805 ft | 24 kts | 249° |
| 2026-05-07 18:34 | 50.07464 | 19.76847 | 804 ft | 13 kts | 166° |
| 2026-05-07 18:34 | 50.07431 | 19.76860 | 803 ft | 0 kts | 164° |
| 2026-05-07 18:36 | 50.07416 | 19.76866 | 803 ft | 6 kts | 165° |
| 2026-05-07 18:36 | 50.07352 | 19.76887 | 803 ft | 10 kts | 168° |
| 2026-05-07 18:36 | 50.07311 | 19.76941 | 803 ft | 7 kts | 105° |
| 2026-05-07 18:36 | 50.07319 | 19.77046 | 803 ft | 13 kts | 78° |
| 2026-05-07 18:37 | 50.07338 | 19.77191 | 803 ft | 14 kts | 79° |
| 2026-05-07 18:37 | 50.07362 | 19.77358 | 803 ft | 17 kts | 77° |
| 2026-05-07 18:37 | 50.07389 | 19.77554 | 803 ft | 23 kts | 78° |
| 2026-05-07 18:37 | 50.07426 | 19.77797 | 803 ft | 24 kts | 78° |
| 2026-05-07 18:38 | 50.07458 | 19.78050 | 803 ft | 24 kts | 78° |
| 2026-05-07 18:38 | 50.07492 | 19.78293 | 803 ft | 22 kts | 80° |
| 2026-05-07 18:38 | 50.07524 | 19.78527 | 803 ft | 22 kts | 77° |
| 2026-05-07 18:38 | 50.07556 | 19.78754 | 803 ft | 22 kts | 77° |
| 2026-05-07 18:39 | 50.07587 | 19.78972 | 803 ft | 22 kts | 78° |
| 2026-05-07 18:39 | 50.07620 | 19.79207 | 803 ft | 22 kts | 78° |
| 2026-05-07 18:39 | 50.07651 | 19.79428 | 803 ft | 20 kts | 78° |
| 2026-05-07 18:39 | 50.07678 | 19.79633 | 803 ft | 20 kts | 78° |
| 2026-05-07 18:40 | 50.07689 | 19.79709 | 803 ft | 4 kts | 77° |
| 2026-05-07 18:40 | 50.07700 | 19.79779 | 803 ft | 7 kts | 76° |
| 2026-05-07 18:40 | 50.07696 | 19.79851 | 803 ft | 7 kts | 125° |
| 2026-05-07 18:40 | 50.07666 | 19.79878 | 803 ft | 5 kts | 162° |
| 2026-05-07 18:41 | 50.07622 | 19.79897 | 803 ft | 9 kts | 166° |
| 2026-05-07 18:41 | 50.07562 | 19.79915 | 803 ft | 9 kts | 169° |
| 2026-05-07 18:41 | 50.07521 | 19.79955 | 803 ft | 5 kts | 117° |
| 2026-05-07 18:41 | 50.07516 | 19.80001 | 803 ft | 4 kts | 88° |
| 2026-05-07 18:42 | 50.07516 | 19.80006 | 803 ft | 0 kts | 88° |
| 2026-05-07 18:42 | 50.07516 | 19.80008 | 803 ft | 1 kts | 88° |
| 2026-05-07 18:42 | 50.07516 | 19.80035 | 803 ft | 1 kts | 108° |
| 2026-05-07 18:42 | 50.07507 | 19.80055 | 803 ft | 2 kts | 136° |
| 2026-05-07 18:43 | 50.07490 | 19.80071 | 803 ft | 4 kts | 159° |
| 2026-05-07 18:43 | 50.07476 | 19.80077 | 803 ft | 0 kts | 165° |